Time;durP1;ratioP1;P1;durP2;ratioP2;P2;SDS_P1;SDS_P2;PMS_P1;PMS_P2;Temp;Humidity;BMP_temperature;BMP_pressure;BME280_temperature;BME280_humidity;BME280_pressure;Samples;Min_cycle;Max_cycle;Signal;HPM_P1;HPM_P2
2021/12/18 00:00:28;;;;;;;6.80;4.40;;;;;;;7.51;100.00;101559.59;5092320;28;20422;-79
2021/12/18 00:02:55;;;;;;;8.82;4.72;;;;;;;7.81;100.00;101555.50;5092703;28;20384;-79
2021/12/18 00:05:30;;;;;;;5.93;3.55;;;;;;;7.80;100.00;101528.81;5091423;28;20403;-79
2021/12/18 00:07:57;;;;;;;5.30;3.50;;;;;;;8.00;100.00;101544.59;5092168;28;20476;-79
2021/12/18 00:10:25;;;;;;;8.45;4.93;;;;;;;7.98;100.00;101540.56;5092431;28;20385;-79
2021/12/18 00:12:52;;;;;;;6.88;4.43;;;;;;;7.98;100.00;101552.50;5090970;28;20407;-79
2021/12/18 00:15:22;;;;;;;7.00;4.45;;;;;;;8.01;100.00;101545.44;5091019;28;20392;-79
2021/12/18 00:17:49;;;;;;;7.10;4.18;;;;;;;7.99;100.00;101536.59;5091952;28;20396;-79
2021/12/18 00:20:17;;;;;;;7.00;4.20;;;;;;;8.02;100.00;101530.34;5090796;28;20400;-79
2021/12/18 00:22:45;;;;;;;5.07;3.45;;;;;;;7.85;100.00;101531.38;5094684;28;20403;-79
2021/12/18 00:25:13;;;;;;;5.38;3.17;;;;;;;7.94;100.00;101523.72;5096522;28;20387;-79
2021/12/18 00:27:40;;;;;;;5.93;3.30;;;;;;;7.89;100.00;101523.94;5094970;28;20391;-79
2021/12/18 00:30:09;;;;;;;6.72;3.15;;;;;;;7.87;100.00;101523.50;5092927;28;20407;-79
2021/12/18 00:32:37;;;;;;;6.43;3.60;;;;;;;7.96;100.00;101524.19;5096186;28;20534;-79
2021/12/18 00:35:05;;;;;;;8.75;4.32;;;;;;;7.70;100.00;101515.34;5095001;28;20395;-79
2021/12/18 00:37:35;;;;;;;4.70;3.08;;;;;;;7.56;100.00;101509.28;5095786;28;20404;-79
2021/12/18 00:40:08;;;;;;;5.37;3.00;;;;;;;7.87;100.00;101511.53;5094870;28;20391;-79
2021/12/18 00:45:11;;;;;;;3.00;2.20;;;;;;;8.20;100.00;101517.81;5094422;28;20482;-79
2021/12/18 00:47:38;;;;;;;3.70;2.30;;;;;;;7.83;100.00;101516.97;5094677;28;20392;-79
2021/12/18 00:50:16;;;;;;;5.40;2.67;;;;;;;7.69;100.00;101516.53;5095929;28;20878;-79
2021/12/18 00:52:43;;;;;;;2.90;1.95;;;;;;;8.00;100.00;101504.81;5095747;28;20519;-79
2021/12/18 00:55:11;;;;;;;4.13;2.78;;;;;;;7.73;100.00;101503.53;5095159;28;20388;-79
2021/12/18 00:57:38;;;;;;;4.53;2.80;;;;;;;7.70;100.00;101495.88;5094327;28;20406;-79
2021/12/18 01:00:10;;;;;;;2.65;2.10;;;;;;;7.96;100.00;101490.78;5094618;28;20384;-79
2021/12/18 01:02:43;;;;;;;2.17;1.80;;;;;;;8.15;100.00;101502.13;5077395;28;20426;-79
2021/12/18 01:05:11;;;;;;;4.03;2.20;;;;;;;8.21;100.00;101497.16;5094364;28;20403;-79
2021/12/18 01:07:41;;;;;;;3.70;2.20;;;;;;;8.32;100.00;101495.53;5094402;28;20470;-79
2021/12/18 01:12:55;;;;;;;4.07;2.45;;;;;;;8.18;100.00;101487.50;5094197;28;20392;-79
2021/12/18 01:23:27;;;;;;;6.03;3.73;;;;;;;7.84;100.00;101485.22;5094226;28;20387;-79
2021/12/18 01:25:56;;;;;;;5.95;3.70;;;;;;;7.95;100.00;101489.13;5095103;28;20411;-79
2021/12/18 01:28:24;;;;;;;6.35;3.72;;;;;;;7.46;100.00;101481.91;5094881;28;20493;-79
2021/12/18 01:30:52;;;;;;;5.18;3.42;;;;;;;7.93;100.00;101483.13;5095205;28;20849;-79
2021/12/18 01:33:20;;;;;;;5.40;3.67;;;;;;;7.94;100.00;101470.81;5093526;28;20490;-79
2021/12/18 01:35:48;;;;;;;5.60;4.03;;;;;;;7.74;100.00;101488.44;5093492;28;20697;-79
2021/12/18 01:38:17;;;;;;;7.07;4.13;;;;;;;7.58;100.00;101478.34;5094717;28;20399;-79
2021/12/18 01:40:44;;;;;;;7.25;4.32;;;;;;;7.60;100.00;101471.28;5095235;28;20395;-79
2021/12/18 01:54:01;;;;;;;5.93;3.20;;;;;;;8.21;100.00;101461.75;5012178;28;20924;-79
2021/12/18 01:56:29;;;;;;;5.17;3.13;;;;;;;8.12;100.00;101463.06;4996065;28;20876;-79
2021/12/18 01:58:56;;;;;;;5.55;3.22;;;;;;;8.29;100.00;101474.78;5012176;28;20422;-79
2021/12/18 02:01:23;;;;;;;5.47;3.00;;;;;;;8.31;100.00;101455.75;5012353;28;20947;-79
2021/12/18 02:03:51;;;;;;;4.82;2.90;;;;;;;8.38;100.00;101460.69;5012231;28;20870;-79
2021/12/18 02:06:20;;;;;;;4.28;2.97;;;;;;;8.35;100.00;101458.63;4996112;28;20415;-79
2021/12/18 02:08:49;;;;;;;3.63;2.92;;;;;;;8.40;100.00;101464.78;4995637;28;20414;-79
2021/12/18 02:22:01;;;;;;;6.18;3.45;;;;;;;8.43;100.00;101458.50;5094315;28;20391;-79
2021/12/18 02:24:32;;;;;;;5.22;3.38;;;;;;;8.19;100.00;101461.31;5093093;28;20392;-79
2021/12/18 02:27:00;;;;;;;5.27;3.20;;;;;;;8.18;100.00;101465.22;5093995;28;20882;-79
2021/12/18 02:29:31;;;;;;;5.80;3.05;;;;;;;8.23;100.00;101451.09;5092912;28;20724;-79
2021/12/18 02:31:58;;;;;;;4.53;2.78;;;;;;;8.24;100.00;101441.56;5076155;28;20490;-79
2021/12/18 02:34:30;;;;;;;3.53;2.72;;;;;;;8.39;100.00;101448.41;5093658;28;20400;-79
2021/12/18 02:37:05;;;;;;;5.20;2.90;;;;;;;8.50;100.00;101452.31;5094037;28;20404;-79
2021/12/18 02:40:43;;;;;;;4.68;2.95;;;;;;;8.55;100.00;101446.50;5093540;28;20893;-79
2021/12/18 02:42:32;;;;;;;3.70;2.83;;;;;;;8.53;100.00;101458.00;5075837;28;20404;-79
2021/12/18 02:45:01;;;;;;;4.20;3.20;;;;;;;8.38;100.00;101449.56;5092901;28;20406;-79
2021/12/18 02:47:28;;;;;;;6.57;3.35;;;;;;;8.61;100.00;101465.41;5093532;28;20399;-79
2021/12/18 02:49:55;;;;;;;5.45;3.10;;;;;;;8.54;100.00;101453.25;5092353;28;20399;-79
2021/12/18 02:52:28;;;;;;;5.22;3.10;;;;;;;8.67;100.00;101455.66;5093709;28;20396;-79
2021/12/18 02:54:56;;;;;;;5.68;3.45;;;;;;;8.41;100.00;101443.28;5093598;28;20396;-79
2021/12/18 02:57:26;;;;;;;5.32;3.33;;;;;;;8.52;100.00;101450.00;5076124;28;20392;-79
2021/12/18 02:59:57;;;;;;;3.50;2.30;;;;;;;8.11;100.00;101439.13;5093953;28;20566;-79
2021/12/18 03:02:26;;;;;;;3.83;2.40;;;;;;;8.26;100.00;101453.19;5093474;28;20442;-79
2021/12/18 03:04:58;;;;;;;4.32;2.05;;;;;;;8.32;100.00;101446.22;5093290;28;20404;-79
2021/12/18 03:07:28;;;;;;;2.35;1.70;;;;;;;8.10;100.00;101459.81;5093449;28;20388;-79
2021/12/18 03:24:21;;;;;;;4.93;2.10;;;;;;;7.71;100.00;101441.03;5093089;28;20469;-79
2021/12/18 03:26:20;;;;;;;6.32;2.03;;;;;;;7.56;100.00;101447.28;5068247;28;20442;-79
2021/12/18 03:28:47;;;;;;;5.80;3.07;;;;;;;7.34;100.00;101441.00;5071548;28;20456;-79
2021/12/18 03:31:15;;;;;;;6.53;3.30;;;;;;;7.82;100.00;101447.72;5072632;28;20393;-79
2021/12/18 03:33:42;;;;;;;5.50;3.37;;;;;;;8.04;100.00;101436.13;5082167;28;20400;-79
2021/12/18 03:36:12;;;;;;;14.80;2.67;;;;;;;7.89;100.00;101448.78;5092692;28;20430;-79
2021/12/18 03:38:39;;;;;;;9.80;2.80;;;;;;;7.84;100.00;101445.44;5091454;28;20487;-79
2021/12/18 03:41:07;;;;;;;10.00;3.50;;;;;;;7.82;100.00;101444.94;5092915;28;20410;-79
2021/12/18 03:43:34;;;;;;;5.38;3.00;;;;;;;8.23;100.00;101447.50;5074626;28;20453;-79
2021/12/18 03:46:12;;;;;;;10.90;3.80;;;;;;;8.32;100.00;101449.00;5091296;28;20451;-79
2021/12/18 03:48:48;;;;;;;8.57;3.70;;;;;;;8.17;100.00;101444.13;5091354;28;20388;-79
2021/12/18 03:51:18;;;;;;;14.50;4.13;;;;;;;8.25;100.00;101442.41;5092714;28;20484;-79
2021/12/18 03:53:45;;;;;;;18.10;4.10;;;;;;;8.20;100.00;101450.97;5092220;28;20403;-79
2021/12/18 03:56:15;;;;;;;15.95;5.38;;;;;;;8.30;100.00;101458.88;5091686;28;20396;-79
2021/12/18 03:58:45;;;;;;;10.20;5.25;;;;;;;8.38;100.00;101466.28;5091369;28;20445;-79
2021/12/18 04:01:12;;;;;;;21.40;5.95;;;;;;;8.24;100.00;101449.94;5091983;28;20396;-79
2021/12/18 04:03:40;;;;;;;28.85;6.25;;;;;;;8.02;100.00;101455.97;5090985;28;20396;-79
2021/12/18 04:06:11;;;;;;;21.83;6.07;;;;;;;7.81;100.00;101449.72;5090962;28;20723;-79
2021/12/18 04:08:39;;;;;;;22.83;5.47;;;;;;;7.68;100.00;101453.66;5092305;28;20384;-78
2021/12/18 04:11:09;;;;;;;11.60;5.80;;;;;;;8.02;100.00;101453.19;5090334;28;20917;-78
2021/12/18 04:13:36;;;;;;;35.83;7.05;;;;;;;8.02;100.00;101449.59;5073863;28;20404;-79
2021/12/18 04:16:03;;;;;;;37.78;7.22;;;;;;;7.62;100.00;101466.16;5090615;28;20403;-78
2021/12/18 04:18:34;;;;;;;22.83;6.87;;;;;;;7.75;100.00;101464.22;5090472;28;20537;-78
2021/12/18 04:21:05;;;;;;;33.70;7.32;;;;;;;7.75;100.00;101459.47;5073932;28;20408;-78
2021/12/18 04:23:32;;;;;;;13.52;6.35;;;;;;;8.07;100.00;101444.63;5092623;28;20396;-79
2021/12/18 04:26:00;;;;;;;24.05;7.22;;;;;;;7.98;100.00;101441.13;5090386;28;20403;-79
2021/12/18 04:28:30;;;;;;;15.05;6.70;;;;;;;8.18;100.00;101456.88;5071891;28;20918;-79
2021/12/18 04:30:58;;;;;;;14.93;6.85;;;;;;;8.45;100.00;101466.50;5072326;28;20386;-79
2021/12/18 04:33:26;;;;;;;14.10;6.32;;;;;;;8.54;100.00;101448.47;5072584;28;20406;-79
2021/12/18 04:35:53;;;;;;;14.45;5.95;;;;;;;8.74;100.00;101467.00;5072149;28;20473;-79
2021/12/18 04:38:21;;;;;;;21.92;6.75;;;;;;;8.60;100.00;101449.84;5037832;28;20844;-79
2021/12/18 04:40:50;;;;;;;34.92;7.68;;;;;;;8.32;100.00;101457.34;5073666;28;20390;-79
2021/12/18 04:43:17;;;;;;;26.55;7.20;;;;;;;8.23;100.00;101453.91;5090365;28;20387;-79
2021/12/18 04:45:45;;;;;;;55.92;8.25;;;;;;;8.09;100.00;101438.69;5091979;28;20384;-79
2021/12/18 04:48:12;;;;;;;30.20;7.13;;;;;;;8.13;100.00;101443.22;5091998;28;20388;-79
2021/12/18 04:50:45;;;;;;;34.80;8.25;;;;;;;8.23;100.00;101450.28;5091465;28;20424;-79
2021/12/18 04:53:14;;;;;;;37.00;8.95;;;;;;;8.08;100.00;101446.22;5091725;28;20389;-80
2021/12/18 04:55:41;;;;;;;46.40;9.83;;;;;;;8.05;100.00;101463.63;5073736;28;20415;-79
2021/12/18 04:58:11;;;;;;;32.13;7.77;;;;;;;7.95;100.00;101458.50;5091464;28;20404;-79
2021/12/18 05:00:46;;;;;;;48.88;8.68;;;;;;;8.01;100.00;101459.91;5107439;28;20739;-79
2021/12/18 05:03:16;;;;;;;71.38;8.70;;;;;;;7.95;100.00;101458.50;5091910;28;20491;-79
2021/12/18 05:05:44;;;;;;;78.65;10.50;;;;;;;7.52;100.00;101460.25;5092112;28;20384;-79
2021/12/18 05:08:11;;;;;;;70.93;10.48;;;;;;;7.66;100.00;101464.34;5091981;28;20380;-79
2021/12/18 05:10:39;;;;;;;64.33;9.33;;;;;;;7.47;100.00;101452.13;5095366;28;20746;-80
2021/12/18 05:13:06;;;;;;;25.60;7.73;;;;;;;7.02;100.00;101457.69;5095208;28;20507;-79
2021/12/18 05:15:34;;;;;;;16.52;6.85;;;;;;;7.04;100.00;101458.19;5077603;28;20384;-79
2021/12/18 05:18:01;;;;;;;13.40;5.70;;;;;;;7.02;100.00;101457.69;5094412;28;20708;-79
2021/12/18 05:20:28;;;;;;;39.30;7.05;;;;;;;6.84;100.00;101461.81;5093960;28;21079;-79
2021/12/18 05:22:59;;;;;;;34.58;6.70;;;;;;;6.77;100.00;101456.78;5094105;28;20388;-79
2021/12/18 05:25:26;;;;;;;34.13;7.17;;;;;;;7.12;100.00;101469.19;5095391;28;20472;-79
2021/12/18 05:27:53;;;;;;;28.15;6.68;;;;;;;6.93;100.00;101454.19;5094964;28;20472;-79
2021/12/18 05:30:20;;;;;;;34.08;7.78;;;;;;;7.17;100.00;101465.38;5095004;28;20437;-79
2021/12/18 05:32:48;;;;;;;38.88;8.40;;;;;;;7.04;100.00;101460.97;5094961;28;20395;-79
2021/12/18 05:35:16;;;;;;;24.65;7.43;;;;;;;7.19;100.00;101477.00;5094882;28;20393;-79
2021/12/18 05:37:52;;;;;;;43.63;8.60;;;;;;;7.16;100.00;101475.69;5093667;28;20400;-79
2021/12/18 05:40:24;;;;;;;26.08;7.03;;;;;;;7.14;100.00;101477.19;5093699;28;20741;-79
2021/12/18 05:42:55;;;;;;;36.40;8.55;;;;;;;6.78;100.00;101464.00;5093775;28;20567;-79
2021/12/18 05:45:23;;;;;;;18.48;6.25;;;;;;;6.77;100.00;101481.78;5095398;28;20451;-79
2021/12/18 05:47:50;;;;;;;17.20;6.53;;;;;;;6.89;100.00;101469.94;5094646;28;20809;-79
2021/12/18 05:50:19;;;;;;;23.85;6.13;;;;;;;6.82;100.00;101466.88;5094816;28;20428;-79
2021/12/18 05:52:47;;;;;;;24.85;6.28;;;;;;;6.87;100.00;101472.25;5093341;28;20399;-79
2021/12/18 05:55:15;;;;;;;24.35;7.10;;;;;;;7.08;100.00;101461.88;5094505;28;20407;-79
2021/12/18 05:57:43;;;;;;;51.60;6.70;;;;;;;6.81;100.00;101466.09;5094597;28;20491;-79
2021/12/18 06:00:11;;;;;;;53.30;7.90;;;;;;;6.93;100.00;101466.13;5093244;28;20414;-79
2021/12/18 06:02:40;;;;;;;61.85;7.65;;;;;;;7.05;100.00;101479.25;5094345;28;20723;-79
2021/12/18 06:05:10;;;;;;;28.65;7.80;;;;;;;7.13;100.00;101481.16;5094720;28;20388;-79
2021/12/18 06:07:57;;;;;;;59.80;9.30;;;;;;;7.03;100.00;101481.56;5094409;28;20389;-79
2021/12/18 06:10:29;;;;;;;22.08;7.63;;;;;;;6.87;100.00;101481.41;5092926;28;20388;-79
2021/12/18 06:12:59;;;;;;;14.10;6.75;;;;;;;7.02;100.00;101480.75;5094232;28;20392;-80
2021/12/18 06:15:26;;;;;;;16.50;6.47;;;;;;;6.70;100.00;101464.03;5093228;28;20485;-79
2021/12/18 06:17:55;;;;;;;11.35;6.25;;;;;;;6.75;100.00;101467.44;5094221;28;20522;-79
2021/12/18 06:20:24;;;;;;;11.98;6.40;;;;;;;6.89;100.00;101479.06;5091972;28;20384;-79
2021/12/18 06:22:54;;;;;;;15.20;7.47;;;;;;;6.96;100.00;101464.63;5093978;28;20858;-79
2021/12/18 06:25:21;;;;;;;11.82;6.95;;;;;;;6.81;100.00;101479.16;5074232;28;20402;-79
2021/12/18 06:27:51;;;;;;;13.85;8.02;;;;;;;6.68;100.00;101481.06;5093856;28;20420;-79
2021/12/18 06:30:19;;;;;;;14.53;7.70;;;;;;;6.32;100.00;101471.69;5091162;28;20482;-79
2021/12/18 06:32:47;;;;;;;12.80;7.50;;;;;;;6.69;100.00;101473.53;5109169;28;20388;-79
2021/12/18 06:35:14;;;;;;;8.32;5.40;;;;;;;6.65;100.00;101476.19;5093807;28;20712;-79
2021/12/18 06:37:41;;;;;;;6.55;3.72;;;;;;;6.35;100.00;101476.56;5093152;28;20910;-80
2021/12/18 06:40:09;;;;;;;6.20;4.30;;;;;;;6.45;100.00;101495.63;5092608;28;20885;-79
2021/12/18 06:42:42;;;;;;;6.05;4.22;;;;;;;6.28;100.00;101481.88;5092219;28;20414;-79
2021/12/18 06:45:12;;;;;;;5.63;4.10;;;;;;;6.42;100.00;101493.53;5091932;28;21581;-79
2021/12/18 06:47:40;;;;;;;8.13;5.00;;;;;;;6.00;100.00;101484.31;5085800;28;20875;-79
2021/12/18 06:50:08;;;;;;;10.45;6.43;;;;;;;6.20;100.00;101485.50;5083662;28;20940;-79
2021/12/18 06:52:35;;;;;;;11.20;6.32;;;;;;;6.46;100.00;101484.19;5084374;28;20396;-79
2021/12/18 06:55:04;;;;;;;5.77;4.17;;;;;;;6.54;100.00;101490.84;5088582;28;20543;-80
2021/12/18 06:57:31;;;;;;;7.63;5.20;;;;;;;6.31;100.00;101486.75;5087559;28;20412;-79
2021/12/18 07:00:05;;;;;;;7.65;4.88;;;;;;;6.36;100.00;101495.69;5092236;28;20895;-79
2021/12/18 07:02:33;;;;;;;6.40;4.30;;;;;;;6.58;100.00;101492.59;5087387;28;20823;-79
2021/12/18 07:05:00;;;;;;;8.82;4.80;;;;;;;6.80;100.00;101506.13;5089748;28;20491;-79
2021/12/18 07:07:27;;;;;;;8.68;5.32;;;;;;;6.72;100.00;101489.53;5093127;28;20389;-79
2021/12/18 07:09:54;;;;;;;9.60;5.63;;;;;;;6.88;100.00;101490.53;5091479;28;20504;-79
2021/12/18 07:12:23;;;;;;;8.38;5.32;;;;;;;6.67;100.00;101482.22;5091876;28;20396;-79
2021/12/18 07:14:50;;;;;;;7.53;4.73;;;;;;;6.81;100.00;101479.16;5092192;28;20450;-78
2021/12/18 07:17:17;;;;;;;7.43;4.80;;;;;;;6.91;100.00;101489.84;5090629;28;20396;-79
2021/12/18 07:19:44;;;;;;;5.10;3.83;;;;;;;7.01;100.00;101489.44;5087735;28;20401;-79
2021/12/18 07:22:12;;;;;;;4.78;3.40;;;;;;;6.84;100.00;101492.38;5092275;28;20487;-79
2021/12/18 07:24:39;;;;;;;4.75;3.20;;;;;;;6.44;100.00;101485.66;5091937;28;20479;-79
2021/12/18 07:27:07;;;;;;;4.43;3.30;;;;;;;6.21;100.00;101476.03;5086603;28;20394;-79
2021/12/18 07:29:34;;;;;;;6.07;4.38;;;;;;;6.52;100.00;101493.13;5091386;28;20396;-79
2021/12/18 07:32:02;;;;;;;5.10;3.77;;;;;;;6.73;100.00;101483.66;5092120;28;20465;-79
2021/12/18 07:34:38;;;;;;;6.43;4.05;;;;;;;6.78;100.00;101480.66;5090561;28;20917;-79
2021/12/18 07:37:05;;;;;;;4.65;2.97;;;;;;;6.63;100.00;101483.25;5074257;28;20903;-79
2021/12/18 07:39:33;;;;;;;4.30;3.10;;;;;;;6.85;100.00;101500.38;5082940;28;20485;-79
2021/12/18 07:42:06;;;;;;;4.45;3.10;;;;;;;6.69;100.00;101504.09;5107057;28;20762;-78
2021/12/18 07:44:33;;;;;;;4.13;3.03;;;;;;;7.23;100.00;101502.94;5088212;28;20396;-79
2021/12/18 07:47:01;;;;;;;5.20;3.78;;;;;;;7.33;100.00;101485.81;5100910;28;20412;-80
2021/12/18 07:49:28;;;;;;;5.80;4.25;;;;;;;7.14;100.00;101494.69;5071205;28;20403;-79
2021/12/18 07:52:00;;;;;;;9.32;5.47;;;;;;;7.12;100.00;101493.41;5091317;28;20411;-79
2021/12/18 07:54:27;;;;;;;8.80;5.97;;;;;;;7.80;100.00;101495.41;5091639;28;20411;-79
2021/12/18 07:56:54;;;;;;;5.93;4.43;;;;;;;7.47;100.00;101480.75;5090880;28;20419;-80
2021/12/18 07:59:22;;;;;;;8.10;4.93;;;;;;;7.54;100.00;101469.88;5092526;28;20381;-80
2021/12/18 08:01:50;;;;;;;5.28;3.58;;;;;;;8.04;100.00;101489.84;5092452;28;20392;-79
2021/12/18 08:04:18;;;;;;;5.25;3.58;;;;;;;8.11;100.00;101480.91;5090853;28;20402;-80
2021/12/18 08:06:45;;;;;;;5.68;3.10;;;;;;;8.25;100.00;101482.22;5091114;28;20457;-80
2021/12/18 08:09:14;;;;;;;5.03;3.67;;;;;;;8.11;100.00;101478.13;5091243;28;20384;-80
2021/12/18 08:11:44;;;;;;;5.80;4.20;;;;;;;8.01;100.00;101479.41;5092891;28;20388;-80
2021/12/18 08:14:13;;;;;;;5.97;3.83;;;;;;;8.16;100.00;101469.53;5091116;28;20515;-81
2021/12/18 08:16:41;;;;;;;9.57;4.10;;;;;;;7.67;100.00;101473.47;5072846;28;20400;-79
2021/12/18 08:19:08;;;;;;;5.40;3.63;;;;;;;7.82;100.00;101490.31;5068411;28;20396;-79
2021/12/18 08:21:35;;;;;;;6.63;4.10;;;;;;;7.82;100.00;101481.97;5090905;28;20481;-80
2021/12/18 08:24:03;;;;;;;6.72;4.25;;;;;;;8.09;100.00;101486.81;5091418;28;20843;-81
2021/12/18 08:26:30;;;;;;;7.45;4.10;;;;;;;8.10;100.00;101479.28;5108302;28;20405;-80
2021/12/18 08:28:57;;;;;;;6.13;3.80;;;;;;;8.18;100.00;101479.16;5085007;28;20487;-80
2021/12/18 08:31:25;;;;;;;6.75;3.80;;;;;;;8.16;100.00;101475.94;5090895;28;20392;-81
2021/12/18 08:33:52;;;;;;;6.13;3.75;;;;;;;8.07;100.00;101469.69;5091921;28;20388;-81
2021/12/18 08:36:22;;;;;;;6.57;3.97;;;;;;;8.01;100.00;101473.81;5082266;28;20479;-81
2021/12/18 08:38:52;;;;;;;5.70;3.80;;;;;;;7.92;100.00;101486.25;5087581;28;20453;-82
2021/12/18 08:41:21;;;;;;;5.50;3.60;;;;;;;8.17;100.00;101491.47;5084462;28;20394;-78
2021/12/18 08:43:49;;;;;;;4.32;2.95;;;;;;;7.84;100.00;101473.25;5092738;28;20400;-77
2021/12/18 08:46:16;;;;;;;7.53;4.18;;;;;;;7.75;100.00;101475.34;5095542;28;20400;-77
2021/12/18 08:48:44;;;;;;;9.52;4.00;;;;;;;7.58;100.00;101481.94;5094777;28;20758;-77
2021/12/18 08:51:17;;;;;;;11.27;4.88;;;;;;;7.64;100.00;101485.31;5090492;28;20407;-77
2021/12/18 08:53:47;;;;;;;8.10;4.28;;;;;;;7.87;100.00;101490.09;5090374;28;20483;-77
2021/12/18 08:56:16;;;;;;;6.53;4.00;;;;;;;8.02;100.00;101486.59;5081102;28;20485;-77
2021/12/18 08:58:45;;;;;;;4.45;3.33;;;;;;;8.01;100.00;101490.53;5083109;28;20404;-77
2021/12/18 09:01:13;;;;;;;5.57;3.92;;;;;;;8.17;100.00;101477.53;5080530;28;20551;-77
2021/12/18 09:03:40;;;;;;;15.27;7.03;;;;;;;7.85;100.00;101474.88;5086636;28;20525;-79
2021/12/18 09:06:08;;;;;;;20.42;8.95;;;;;;;7.81;100.00;101472.00;5087542;28;20420;-77
2021/12/18 09:08:35;;;;;;;10.20;5.88;;;;;;;7.79;100.00;101476.25;5077101;28;20479;-81
2021/12/18 09:11:03;;;;;;;8.43;4.50;;;;;;;7.90;100.00;101492.19;5094863;28;20399;-78
2021/12/18 09:13:30;;;;;;;5.50;3.80;;;;;;;8.14;100.00;101494.94;5095111;28;20392;-78
2021/12/18 09:15:59;;;;;;;6.53;4.43;;;;;;;8.18;100.00;101484.72;5093693;28;20450;-78
2021/12/18 09:18:26;;;;;;;9.55;4.25;;;;;;;7.90;100.00;101471.88;5094962;28;20395;-78
2021/12/18 09:20:54;;;;;;;10.97;3.70;;;;;;;8.12;100.00;101486.13;5110918;28;20397;-76
2021/12/18 09:23:23;;;;;;;7.43;3.40;;;;;;;8.40;100.00;101489.03;5093382;28;20396;-78
2021/12/18 09:25:51;;;;;;;5.00;2.50;;;;;;;8.61;100.00;101479.34;5060425;28;20394;-77
2021/12/18 09:28:22;;;;;;;12.97;3.13;;;;;;;7.99;100.00;101469.78;5094990;28;20443;-77
2021/12/18 09:30:50;;;;;;;12.38;3.65;;;;;;;7.53;100.00;101478.56;5093682;28;20437;-79
2021/12/18 09:33:25;;;;;;;4.60;2.90;;;;;;;8.18;100.00;101472.78;5093587;28;20457;-77
2021/12/18 09:35:57;;;;;;;5.93;3.03;;;;;;;8.38;100.00;101477.41;5094425;28;20396;-79
2021/12/18 09:38:25;;;;;;;10.65;3.47;;;;;;;8.49;100.00;101473.81;5094434;28;20392;-78
2021/12/18 09:40:58;;;;;;;8.00;3.15;;;;;;;8.69;100.00;101483.94;5090753;28;20399;-78
2021/12/18 09:43:30;;;;;;;6.75;3.08;;;;;;;8.70;100.00;101482.81;5075850;28;20424;-77
2021/12/18 09:46:13;;;;;;;5.80;3.15;;;;;;;8.83;100.00;101481.59;5087472;28;20388;-77
2021/12/18 09:48:46;;;;;;;14.77;3.53;;;;;;;8.55;100.00;101477.16;5094480;28;20482;-77
2021/12/18 09:51:24;;;;;;;18.40;4.30;;;;;;;8.61;100.00;101487.72;5093487;28;20387;-77
2021/12/18 09:53:53;;;;;;;8.90;4.30;;;;;;;8.76;100.00;101489.75;5093955;28;20395;-77
2021/12/18 09:56:25;;;;;;;8.68;3.50;;;;;;;8.70;100.00;101491.16;5092209;28;20388;-78
2021/12/18 09:58:53;;;;;;;24.05;4.20;;;;;;;8.04;100.00;101481.47;5094424;28;20392;-77
2021/12/18 10:01:21;;;;;;;24.77;4.90;;;;;;;7.86;100.00;101488.44;5092909;28;20752;-77
2021/12/18 10:03:54;;;;;;;16.27;4.90;;;;;;;7.70;100.00;101476.38;5071772;28;20761;-78
2021/12/18 10:06:51;;;;;;;23.95;4.80;;;;;;;7.72;100.00;101504.69;5092396;28;20483;-77
2021/12/18 10:10:10;;;;;;;46.20;5.88;;;;;;;7.73;100.00;101497.13;5091573;28;20818;-78
2021/12/18 10:13:16;;;;;;;24.10;5.45;;;;;;;7.95;100.00;101497.50;5082605;28;20883;-76
2021/12/18 10:16:11;;;;;;;48.30;5.97;;;;;;;7.48;100.00;101490.75;5087922;28;20917;-79
2021/12/18 10:18:39;;;;;;;27.15;5.32;;;;;;;7.68;100.00;101498.19;5083945;28;20752;-76
2021/12/18 10:21:09;;;;;;;33.53;5.43;;;;;;;7.74;100.00;101499.56;5090429;28;20403;-76
2021/12/18 10:23:37;;;;;;;14.88;5.10;;;;;;;8.19;100.00;101482.78;5092708;28;21116;-77
2021/12/18 10:26:05;;;;;;;27.33;5.63;;;;;;;8.27;100.00;101495.78;5073452;28;20401;-76
2021/12/18 10:28:46;;;;;;;9.57;5.20;;;;;;;8.50;100.00;101483.78;5093538;28;20446;-76
2021/12/18 10:31:13;;;;;;;9.50;4.50;;;;;;;8.76;100.00;101484.19;5092235;28;20380;-75
2021/12/18 10:33:41;;;;;;;11.98;4.32;;;;;;;9.08;100.00;101494.28;5091505;28;20743;-77
2021/12/18 10:36:14;;;;;;;10.10;4.47;;;;;;;8.91;100.00;101486.22;5091648;28;20913;-77
2021/12/18 10:38:49;;;;;;;20.27;4.50;;;;;;;8.73;100.00;101495.22;5091600;28;20485;-77
2021/12/18 10:41:31;;;;;;;10.15;3.97;;;;;;;8.85;100.00;101476.47;5091797;28;20909;-77
2021/12/18 10:44:09;;;;;;;7.90;3.88;;;;;;;9.03;100.00;101486.16;5090006;28;20871;-78
2021/12/18 10:46:39;;;;;;;8.45;4.18;;;;;;;8.99;100.00;101476.06;5090817;28;20395;-78
2021/12/18 10:49:15;;;;;;;5.57;4.13;;;;;;;8.82;100.00;101460.47;5087317;28;20396;-76
2021/12/18 10:51:48;;;;;;;15.95;4.80;;;;;;;8.81;100.00;101467.22;5090908;28;20747;-76
2021/12/18 10:54:24;;;;;;;7.45;4.60;;;;;;;8.98;100.00;101458.53;5089125;28;20396;-76
2021/12/18 10:56:55;;;;;;;11.00;4.50;;;;;;;9.07;100.00;101464.75;5058277;28;20459;-77
2021/12/18 10:59:31;;;;;;;7.27;4.00;;;;;;;9.10;100.00;101447.31;5088886;28;20920;-78
2021/12/18 11:02:10;;;;;;;9.98;4.68;;;;;;;9.16;100.00;101454.25;5092770;28;20434;-78
2021/12/18 11:04:40;;;;;;;13.90;7.75;;;;;;;9.22;100.00;101460.41;5091960;28;20441;-77
2021/12/18 11:07:27;;;;;;;19.13;8.77;;;;;;;9.27;100.00;101448.16;5083828;28;20388;-78
2021/12/18 11:10:21;;;;;;;38.92;12.25;;;;;;;9.26;100.00;101440.94;5091846;28;20441;-78
2021/12/18 11:15:38;;;;;;;34.22;12.40;;;;;;;9.18;100.00;101446.34;5084907;28;20443;-78
2021/12/18 11:18:08;;;;;;;27.75;12.10;;;;;;;9.25;100.00;101428.16;5088147;28;20711;-77
2021/12/18 11:20:36;;;;;;;22.33;13.15;;;;;;;9.31;100.00;101438.72;5091357;28;20400;-77
2021/12/18 11:23:04;;;;;;;38.53;19.60;;;;;;;9.27;100.00;101439.78;5089185;28;20404;-77
2021/12/18 11:25:31;;;;;;;31.20;17.08;;;;;;;9.16;100.00;101431.94;5090893;28;20396;-77
2021/12/18 11:27:59;;;;;;;42.43;23.03;;;;;;;8.93;100.00;101438.47;5089822;28;20404;-77
2021/12/18 11:30:26;;;;;;;40.95;20.35;;;;;;;9.03;100.00;101410.88;5091065;28;20479;-77
2021/12/18 11:33:00;;;;;;;38.03;15.48;;;;;;;9.08;100.00;101434.91;5079326;28;20400;-77
2021/12/18 11:35:28;;;;;;;32.55;11.93;;;;;;;8.98;100.00;101430.63;5080816;28;20793;-77
2021/12/18 11:38:01;;;;;;;30.23;13.02;;;;;;;8.97;100.00;101415.09;5082052;28;20392;-77
2021/12/18 11:40:35;;;;;;;22.83;13.55;;;;;;;9.13;100.00;101418.69;5085949;28;20498;-77
2021/12/18 11:43:07;;;;;;;27.50;16.00;;;;;;;9.38;100.00;101429.69;5081142;28;20415;-78
2021/12/18 11:45:36;;;;;;;35.67;19.75;;;;;;;9.41;100.00;101432.59;5080908;28;20736;-78
2021/12/18 11:48:06;;;;;;;42.03;24.88;;;;;;;9.47;100.00;101414.41;5091409;28;20471;-77
2021/12/18 11:50:38;;;;;;;57.03;23.97;;;;;;;8.91;100.00;101432.41;5089118;28;20395;-77
2021/12/18 11:53:13;;;;;;;45.92;22.65;;;;;;;9.12;100.00;101425.44;5087513;28;20392;-77
2021/12/18 11:55:49;;;;;;;58.70;26.58;;;;;;;8.69;100.00;101433.78;5088061;28;20397;-79
2021/12/18 11:58:24;;;;;;;49.13;27.97;;;;;;;9.02;100.00;101431.56;5070975;28;20404;-79
2021/12/18 12:01:02;;;;;;;55.78;26.58;;;;;;;8.69;100.00;101411.47;5085195;28;20475;-79
2021/12/18 12:03:50;;;;;;;50.53;25.85;;;;;;;9.06;100.00;101410.16;5083274;28;20463;-78
2021/12/18 12:06:33;;;;;;;45.75;25.13;;;;;;;9.39;100.00;101418.19;5089109;28;20909;-79
2021/12/18 12:12:07;;;;;;;38.05;21.13;;;;;;;9.73;100.00;101422.22;5087102;28;20411;-80
2021/12/18 12:14:40;;;;;;;41.80;22.98;;;;;;;9.66;100.00;101403.34;5086676;28;20401;-79
2021/12/18 12:17:19;;;;;;;43.50;23.90;;;;;;;9.74;100.00;101419.06;5090396;28;20469;-79
2021/12/18 12:19:51;;;;;;;40.72;22.98;;;;;;;9.60;100.00;101412.34;5089607;28;20389;-80
2021/12/18 12:22:42;;;;;;;44.45;24.73;;;;;;;9.63;100.00;101418.03;5088477;28;20529;-79
2021/12/18 12:25:14;;;;;;;46.15;25.27;;;;;;;9.72;100.00;101407.47;5102177;28;20396;-80
2021/12/18 12:27:50;;;;;;;54.55;25.10;;;;;;;9.57;100.00;101407.47;5084609;28;20399;-79